createdAt,value
2018-02-01T00:01:41.821Z,100028.27
2018-02-01T00:04:09.407Z,100028.00
2018-02-01T00:06:36.958Z,100029.38
2018-02-01T00:09:04.800Z,100033.39
2018-02-01T00:11:32.391Z,100031.47
2018-02-01T00:14:00.143Z,100022.67
2018-02-01T00:16:27.747Z,100013.80
2018-02-01T00:18:55.324Z,100012.16
2018-02-01T00:21:22.902Z,100010.55
2018-02-01T00:23:50.503Z,100015.11
2018-02-01T00:26:18.066Z,100012.08
2018-02-01T00:28:45.636Z,100008.46
2018-02-01T00:31:13.358Z,100002.45
2018-02-01T00:33:41.017Z,99996.09
2018-02-01T00:36:08.689Z,99996.27
2018-02-01T00:38:36.326Z,99998.08
2018-02-01T00:41:03.908Z,99988.87
2018-02-01T00:43:31.705Z,99988.80
2018-02-01T00:45:59.322Z,99993.45
2018-02-01T00:48:26.901Z,99987.95
2018-02-01T00:50:54.650Z,99990.88
2018-02-01T00:53:22.279Z,99987.42
2018-02-01T00:55:49.841Z,99992.48
2018-02-01T00:58:17.411Z,99980.64
2018-02-01T01:00:45.028Z,99977.33
2018-02-01T01:03:12.774Z,99974.88
2018-02-01T01:05:40.343Z,99975.86
2018-02-01T01:08:08.064Z,99971.80
2018-02-01T01:10:35.659Z,99971.42
2018-02-01T01:13:03.407Z,99963.06
2018-02-01T01:15:30.991Z,99960.92
2018-02-01T01:17:58.548Z,99953.78
2018-02-01T01:20:26.128Z,99951.35
2018-02-01T01:22:53.720Z,99952.59
2018-02-01T01:25:21.491Z,99948.98
2018-02-01T01:27:49.174Z,99948.16
2018-02-01T01:30:16.792Z,99950.72
2018-02-01T01:32:44.359Z,99945.38
2018-02-01T01:35:12.164Z,99937.78
2018-02-01T01:37:39.772Z,99940.41
2018-02-01T01:40:07.339Z,99934.37
2018-02-01T01:42:34.915Z,99936.31
2018-02-01T01:45:02.598Z,99928.56
2018-02-01T01:47:30.164Z,99929.80
2018-02-01T01:49:57.735Z,99923.52
2018-02-01T01:52:25.337Z,99921.16
2018-02-01T01:54:52.889Z,99924.08
2018-02-01T01:57:20.454Z,99919.58
2018-02-01T01:59:48.059Z,99914.80
2018-02-01T02:02:15.623Z,99909.20
2018-02-01T02:04:43.307Z,99909.13
2018-02-01T02:07:10.907Z,99903.30
2018-02-01T02:09:38.467Z,99908.98
2018-02-01T02:12:06.083Z,99907.31
2018-02-01T02:14:33.682Z,99907.88
2018-02-01T02:17:01.236Z,99906.34
2018-02-01T02:19:28.814Z,99903.67
2018-02-01T02:21:56.531Z,99900.33
2018-02-01T02:24:24.125Z,99901.23
2018-02-01T02:26:51.833Z,99906.00
2018-02-01T02:29:19.450Z,99904.15
2018-02-01T02:31:47.972Z,99908.22
2018-02-01T02:34:15.542Z,99905.92
2018-02-01T02:36:43.307Z,99902.96
2018-02-01T02:39:10.868Z,99903.86
2018-02-01T02:41:38.471Z,99900.55
2018-02-01T02:44:06.093Z,99903.45
2018-02-01T02:46:33.671Z,99903.79
2018-02-01T02:49:01.245Z,99902.25
2018-02-01T02:51:29.080Z,99897.74
2018-02-01T02:53:56.642Z,99893.12
2018-02-01T02:56:24.217Z,99895.75
2018-02-01T02:58:51.821Z,99891.80
2018-02-01T03:01:19.403Z,99889.32
2018-02-01T03:03:46.968Z,99889.09
2018-02-01T03:06:14.656Z,99888.19
2018-02-01T03:08:42.320Z,99890.37
2018-02-01T03:11:09.967Z,99894.39
2018-02-01T03:13:37.569Z,99891.88
2018-02-01T03:16:05.134Z,99894.16
2018-02-01T03:18:32.686Z,99896.80
2018-02-01T03:21:00.283Z,99897.64
2018-02-01T03:23:27.886Z,99898.89
2018-02-01T03:25:55.440Z,99883.47
2018-02-01T03:28:23.039Z,99904.98
2018-02-01T03:30:50.642Z,99903.73
2018-02-01T03:33:18.228Z,99900.05
2018-02-01T03:35:45.825Z,99902.00
2018-02-01T03:38:13.432Z,99900.56
2018-02-01T03:40:41.111Z,99899.24
2018-02-01T03:43:08.760Z,99902.28
2018-02-01T03:45:36.332Z,99887.88
2018-02-01T03:48:03.919Z,99902.70
2018-02-01T03:50:31.513Z,99889.70
2018-02-01T03:52:59.087Z,99898.80
2018-02-01T03:55:26.685Z,99892.72
2018-02-01T03:57:54.300Z,99897.91
2018-02-01T04:00:21.983Z,99903.17
2018-02-01T04:02:49.634Z,99892.23
2018-02-01T04:05:17.229Z,99896.11
2018-02-01T04:07:44.985Z,99889.95
2018-02-01T04:10:12.686Z,99895.62
2018-02-01T04:12:40.310Z,99886.56
2018-02-01T04:15:07.904Z,99884.62
2018-02-01T04:17:35.472Z,99885.86
2018-02-01T04:20:03.086Z,99885.74
2018-02-01T04:22:30.730Z,99886.20
2018-02-01T04:24:58.580Z,99888.52
2018-02-01T04:27:26.261Z,99889.95
2018-02-01T04:29:53.819Z,99889.68
2018-02-01T04:32:21.386Z,99878.59
2018-02-01T04:34:48.995Z,99887.12
2018-02-01T04:37:16.701Z,99883.53
2018-02-01T04:39:44.266Z,99888.23
2018-02-01T04:42:11.871Z,99887.41
2018-02-01T04:44:39.472Z,99890.23
2018-02-01T04:47:07.050Z,99885.27
2018-02-01T04:49:34.661Z,99888.38
2018-02-01T04:52:02.258Z,99887.63
2018-02-01T04:54:29.866Z,99885.97
2018-02-01T04:56:57.482Z,99885.61
2018-02-01T04:59:25.282Z,99882.34
2018-02-01T05:01:52.849Z,99884.52
2018-02-01T05:04:20.451Z,99887.59
2018-02-01T05:06:48.043Z,99887.06
2018-02-01T05:09:15.707Z,99887.33
2018-02-01T05:11:43.334Z,99887.06
2018-02-01T05:14:10.921Z,99882.34
2018-02-01T05:16:38.508Z,99883.12
2018-02-01T05:19:06.129Z,99883.88
2018-02-01T05:21:33.694Z,99889.76
2018-02-01T05:24:01.264Z,99889.01
2018-02-01T05:26:28.871Z,99888.30
2018-02-01T05:28:56.448Z,99897.31
2018-02-01T05:31:24.018Z,99896.94
2018-02-01T05:33:51.637Z,99898.97
2018-02-01T05:36:19.395Z,99901.86
2018-02-01T05:38:46.969Z,99898.06
2018-02-01T05:41:14.626Z,99899.38
2018-02-01T05:43:42.164Z,99904.65
2018-02-01T05:46:09.704Z,99905.83
2018-02-01T05:48:37.312Z,99905.27
2018-02-01T05:51:04.907Z,99886.36
2018-02-01T05:53:32.607Z,99904.27
2018-02-01T05:56:00.220Z,99902.21
2018-02-01T05:58:27.933Z,99904.25
2018-02-01T06:00:55.600Z,99899.55
2018-02-01T06:03:23.269Z,99901.84
2018-02-01T06:05:50.886Z,99905.38
2018-02-01T06:08:18.466Z,99910.27
2018-02-01T06:10:46.072Z,99915.44
2018-02-01T06:13:13.700Z,99913.73
2018-02-01T06:15:41.266Z,99908.30
2018-02-01T06:18:08.865Z,99900.88
2018-02-01T06:20:36.431Z,99892.41
2018-02-01T06:23:04.168Z,99900.12
2018-02-01T06:25:31.766Z,99898.92
2018-02-01T06:27:59.554Z,99892.05
2018-02-01T06:30:27.336Z,99894.05
2018-02-01T06:32:54.926Z,99900.11
2018-02-01T06:35:22.490Z,99906.52
2018-02-01T06:37:50.425Z,99905.81
2018-02-01T06:40:18.039Z,99907.45
2018-02-01T06:42:45.621Z,99903.66
2018-02-01T06:45:13.183Z,99907.03
2018-02-01T06:47:40.800Z,99906.70
2018-02-01T06:50:08.367Z,99907.41
2018-02-01T06:52:35.930Z,99909.86
2018-02-01T06:55:03.558Z,99908.34
2018-02-01T06:57:31.123Z,99909.36
2018-02-01T06:59:58.872Z,99904.14
2018-02-01T07:02:26.548Z,99906.44
2018-02-01T07:04:54.120Z,99907.67
2018-02-01T07:07:21.687Z,99911.58
2018-02-01T07:09:49.526Z,99904.06
2018-02-01T07:12:17.109Z,99905.47
2018-02-01T07:14:44.680Z,99904.66
2018-02-01T07:17:12.283Z,99901.94
2018-02-01T07:19:39.848Z,99900.06
2018-02-01T07:22:07.684Z,99899.58
2018-02-01T07:24:35.523Z,99903.63
2018-02-01T07:27:03.103Z,99901.03
2018-02-01T07:29:30.821Z,99904.45
2018-02-01T07:31:58.450Z,99904.78
2018-02-01T07:34:26.023Z,99904.33
2018-02-01T07:36:53.597Z,99913.05
2018-02-01T07:39:21.191Z,99909.55
2018-02-01T07:41:48.776Z,99912.27
2018-02-01T07:44:16.398Z,99905.38
2018-02-01T07:46:44.056Z,99917.73
2018-02-01T07:49:11.790Z,99919.96
2018-02-01T07:51:39.575Z,99921.30
2018-02-01T07:54:07.249Z,99920.74
2018-02-01T07:56:34.825Z,99918.33
2018-02-01T07:59:02.424Z,99917.10
2018-02-01T08:01:30.053Z,99922.77
2018-02-01T08:03:57.707Z,99921.14
2018-02-01T08:06:25.307Z,99930.39
2018-02-01T08:08:53.025Z,99933.55
2018-02-01T08:13:53.461Z,99937.73
2018-02-01T08:16:21.046Z,99937.91
2018-02-01T08:18:48.618Z,99934.07
2018-02-01T08:21:16.222Z,99936.98
2018-02-01T08:23:43.794Z,99941.44
2018-02-01T08:26:11.371Z,99943.40
2018-02-01T08:28:38.983Z,99950.25
2018-02-01T08:31:06.674Z,99948.48
2018-02-01T08:33:34.251Z,99951.59
2018-02-01T08:36:01.866Z,99955.19
2018-02-01T08:38:29.475Z,99961.52
2018-02-01T08:40:57.057Z,99962.03
2018-02-01T08:43:24.699Z,99955.84
2018-02-01T08:45:52.283Z,99955.65
2018-02-01T08:48:19.865Z,99952.75
2018-02-01T08:50:47.477Z,99944.58
2018-02-01T08:53:15.027Z,99940.91
2018-02-01T08:55:42.694Z,99931.23
2018-02-01T08:58:10.886Z,99943.16
2018-02-01T09:00:38.482Z,99940.31
2018-02-01T09:03:06.052Z,99936.25
2018-02-01T09:05:33.656Z,99935.29
2018-02-01T09:08:01.400Z,99931.61
2018-02-01T09:10:29.064Z,99935.70
2018-02-01T09:12:56.724Z,99930.73
2018-02-01T09:15:24.287Z,99936.77
2018-02-01T09:17:51.873Z,99931.87
2018-02-01T09:20:19.523Z,99928.45
2018-02-01T09:22:47.184Z,99930.58
2018-02-01T09:25:14.784Z,99918.84
2018-02-01T09:27:42.470Z,99920.06
2018-02-01T09:30:10.146Z,99899.73
2018-02-01T09:32:37.711Z,99899.00
2018-02-01T09:35:05.489Z,99900.66
2018-02-01T09:37:33.056Z,99895.26
2018-02-01T09:40:00.624Z,99900.73
2018-02-01T09:42:28.238Z,99897.39
2018-02-01T09:44:55.927Z,99893.08
2018-02-01T09:47:23.488Z,99887.81
2018-02-01T09:49:51.078Z,99883.73
2018-02-01T09:52:18.926Z,99871.83
2018-02-01T09:54:46.585Z,99874.30
2018-02-01T09:57:14.434Z,99869.78
2018-02-01T09:59:42.000Z,99866.47
2018-02-01T10:02:09.772Z,99856.89
2018-02-01T10:04:37.376Z,99849.34
2018-02-01T10:07:05.093Z,99843.95
2018-02-01T10:09:32.656Z,99840.53
2018-02-01T10:12:00.420Z,99844.88
2018-02-01T10:14:27.997Z,99842.81
2018-02-01T10:16:55.562Z,99829.75
2018-02-01T10:19:23.211Z,99828.52
2018-02-01T10:21:50.858Z,99827.30
2018-02-01T10:24:18.506Z,99823.40
2018-02-01T10:26:46.111Z,99817.48
2018-02-01T10:29:13.656Z,99811.59
2018-02-01T10:31:41.207Z,99806.12
2018-02-01T10:34:08.976Z,99801.09
2018-02-01T10:36:36.514Z,99801.40
2018-02-01T10:39:04.138Z,99796.34
2018-02-01T10:41:31.720Z,99786.23
2018-02-01T10:43:59.273Z,99787.72
2018-02-01T10:46:26.838Z,99774.09
2018-02-01T10:48:54.427Z,99767.59
2018-02-01T10:51:21.962Z,99760.44
2018-02-01T10:53:49.680Z,99760.56
2018-02-01T10:56:17.331Z,99759.73
2018-02-01T10:58:44.886Z,99753.03
2018-02-01T11:01:12.484Z,99753.59
2018-02-01T11:03:40.058Z,99749.53
2018-02-01T11:06:07.608Z,99741.23
2018-02-01T11:08:35.151Z,99742.39
2018-02-01T11:11:02.728Z,99733.05
2018-02-01T11:13:30.346Z,99732.27
2018-02-01T11:15:57.922Z,99727.33
2018-02-01T11:18:25.523Z,99727.30
2018-02-01T11:20:53.095Z,99722.05
2018-02-01T11:23:20.645Z,99722.00
2018-02-01T11:25:48.266Z,99717.80
2018-02-01T11:28:15.836Z,99720.17
2018-02-01T11:30:43.572Z,99706.73
2018-02-01T11:33:11.159Z,99709.95
2018-02-01T11:35:38.702Z,99707.86
2018-02-01T11:38:06.284Z,99692.77
2018-02-01T11:40:33.889Z,99693.97
2018-02-01T11:43:02.376Z,99689.23
2018-02-01T11:45:29.921Z,99685.95
2018-02-01T11:47:57.514Z,99674.78
2018-02-01T11:50:25.063Z,99675.53
2018-02-01T11:52:52.617Z,99681.05
2018-02-01T11:55:20.201Z,99668.86
2018-02-01T11:57:47.758Z,99665.65
2018-02-01T12:00:15.299Z,99669.81
2018-02-01T12:02:42.874Z,99667.63
2018-02-01T12:05:10.433Z,99667.70
2018-02-01T12:07:37.988Z,99663.23
2018-02-01T12:10:05.555Z,99669.34
2018-02-01T12:12:33.110Z,99664.86
2018-02-01T12:15:00.695Z,99660.92
2018-02-01T12:17:28.289Z,99656.92
2018-02-01T12:19:55.856Z,99656.03
2018-02-01T12:22:23.423Z,99651.03
2018-02-01T12:24:51.033Z,99647.14
2018-02-01T12:27:18.761Z,99637.58
2018-02-01T12:29:46.368Z,99633.68
2018-02-01T12:32:13.975Z,99636.38
2018-02-01T12:34:41.542Z,99642.98
2018-02-01T12:37:09.109Z,99639.86
2018-02-01T12:39:36.691Z,99634.77
2018-02-01T12:42:04.261Z,99632.44
2018-02-01T12:44:32.007Z,99628.44
2018-02-01T12:46:59.603Z,99623.16
2018-02-01T12:49:27.156Z,99625.17
2018-02-01T12:51:54.711Z,99612.07
2018-02-01T12:54:22.283Z,99614.77
2018-02-01T12:56:49.907Z,99597.95
2018-02-01T12:59:17.480Z,99598.68
2018-02-01T13:01:45.063Z,99598.45
2018-02-01T13:04:12.599Z,99596.84
2018-02-01T13:06:40.155Z,99597.65
2018-02-01T13:09:07.765Z,99597.67
2018-02-01T13:11:35.308Z,99602.88
2018-02-01T13:14:02.855Z,99598.43
2018-02-01T13:16:30.430Z,99589.19
2018-02-01T13:18:57.989Z,99599.55
2018-02-01T13:21:25.564Z,99607.24
2018-02-01T13:23:53.176Z,99608.52
2018-02-01T13:26:20.870Z,99608.75
2018-02-01T13:28:48.440Z,99608.53
2018-02-01T13:31:16.145Z,99612.08
2018-02-01T13:33:43.720Z,99605.17
2018-02-01T13:36:11.297Z,99601.46
2018-02-01T13:38:38.924Z,99600.66
2018-02-01T13:41:06.593Z,99603.14
2018-02-01T13:43:34.172Z,99609.60
2018-02-01T13:46:01.929Z,99608.70
2018-02-01T13:48:29.787Z,99611.08
2018-02-01T13:50:57.365Z,99607.48
2018-02-01T13:53:24.972Z,99605.14
2018-02-01T13:55:52.551Z,99606.35
2018-02-01T13:58:20.143Z,99590.00
2018-02-01T14:00:47.750Z,99595.44
2018-02-01T14:03:15.342Z,99588.13
2018-02-01T14:05:43.009Z,99592.05
2018-02-01T14:08:10.669Z,99591.82
2018-02-01T14:10:38.244Z,99589.59
2018-02-01T14:13:05.811Z,99595.24
2018-02-01T14:15:33.555Z,99583.98
2018-02-01T14:18:01.513Z,99589.00
2018-02-01T14:20:29.097Z,99586.10
2018-02-01T14:22:56.711Z,99591.06
2018-02-01T14:25:24.320Z,99593.12
2018-02-01T14:27:51.894Z,99594.38
2018-02-01T14:30:19.511Z,99594.30
2018-02-01T14:32:47.287Z,99594.52
2018-02-01T14:35:15.737Z,99595.27
2018-02-01T14:37:43.344Z,99597.27
2018-02-01T14:40:10.928Z,99595.02
2018-02-01T14:42:38.505Z,99589.23
2018-02-01T14:45:06.107Z,99592.38
2018-02-01T14:47:33.893Z,99591.50
2018-02-01T14:50:01.479Z,99592.38
2018-02-01T14:52:29.080Z,99596.61
2018-02-01T14:54:56.668Z,99595.17
2018-02-01T14:57:24.333Z,99602.81
2018-02-01T14:59:51.957Z,99607.25
2018-02-01T15:02:19.660Z,99605.69
2018-02-01T15:04:47.312Z,99610.04
2018-02-01T15:07:14.985Z,99615.67
2018-02-01T15:09:42.551Z,99615.49
2018-02-01T15:12:10.130Z,99612.56
2018-02-01T15:14:37.838Z,99615.16
2018-02-01T15:17:05.413Z,99615.34
2018-02-01T15:19:33.087Z,99612.36
2018-02-01T15:22:00.925Z,99625.12
2018-02-01T15:24:28.618Z,99626.98
2018-02-01T15:26:56.223Z,99620.87
2018-02-01T15:29:23.846Z,99618.66
2018-02-01T15:31:51.597Z,99626.91
2018-02-01T15:34:19.254Z,99629.92
2018-02-01T15:36:46.881Z,99625.39
2018-02-01T15:39:14.699Z,99633.71
2018-02-01T15:41:42.464Z,99638.20
2018-02-01T15:44:10.064Z,99640.20
2018-02-01T15:46:37.831Z,99646.09
2018-02-01T15:49:05.513Z,99651.24
2018-02-01T15:51:33.155Z,99650.13
2018-02-01T15:54:00.774Z,99661.60
2018-02-01T15:56:28.427Z,99656.71
2018-02-01T15:58:56.059Z,99652.44
2018-02-01T16:01:23.727Z,99650.39
2018-02-01T16:03:51.384Z,99649.55
2018-02-01T16:06:19.022Z,99639.69
2018-02-01T16:08:46.645Z,99633.26
2018-02-01T16:11:14.257Z,99632.44
2018-02-01T16:13:43.054Z,99634.59
2018-02-01T16:16:11.130Z,99633.62
2018-02-01T16:18:38.786Z,99637.25
2018-02-01T16:21:06.396Z,99639.08
2018-02-01T16:23:33.978Z,99637.98
2018-02-01T16:26:01.743Z,99636.57
2018-02-01T16:28:29.470Z,99640.58
2018-02-01T16:30:57.550Z,99641.56
2018-02-01T16:33:25.213Z,99628.05
2018-02-01T16:35:52.812Z,99627.28
2018-02-01T16:38:20.440Z,99619.69
2018-02-01T16:40:48.012Z,99626.93
2018-02-01T16:43:15.747Z,99616.92
2018-02-01T16:45:43.385Z,99623.55
2018-02-01T16:48:10.949Z,99631.17
2018-02-01T16:50:38.511Z,99633.64
2018-02-01T16:53:06.205Z,99637.26
2018-02-01T16:55:33.768Z,99643.13
2018-02-01T16:58:01.328Z,99641.79
2018-02-01T17:00:29.055Z,99640.64
2018-02-01T17:02:56.831Z,99641.34
2018-02-01T17:05:24.495Z,99638.87
2018-02-01T17:07:52.094Z,99640.07
2018-02-01T17:10:19.654Z,99637.30
2018-02-01T17:12:47.219Z,99635.16
2018-02-01T17:15:14.818Z,99643.15
2018-02-01T17:17:42.391Z,99635.37
2018-02-01T17:20:09.979Z,99638.92
2018-02-01T17:22:37.944Z,99645.61
2018-02-01T17:25:05.509Z,99647.55
2018-02-01T17:27:33.069Z,99649.66
2018-02-01T17:30:00.671Z,99660.33
2018-02-01T17:32:28.237Z,99653.09
2018-02-01T17:34:55.832Z,99655.69
2018-02-01T17:37:23.424Z,99653.94
2018-02-01T17:39:51.170Z,99650.67
2018-02-01T17:42:18.794Z,99652.02
2018-02-01T17:44:46.413Z,99643.23
2018-02-01T17:47:13.968Z,99645.34
2018-02-01T17:49:41.523Z,99649.87
2018-02-01T17:52:09.139Z,99648.53
2018-02-01T17:54:36.710Z,99640.39
2018-02-01T17:57:04.273Z,99646.09
2018-02-01T17:59:31.859Z,99648.27
2018-02-01T18:01:59.691Z,99648.05
2018-02-01T18:04:27.238Z,99646.41
2018-02-01T18:06:54.949Z,99648.08
2018-02-01T18:09:22.492Z,99650.94
2018-02-01T18:11:50.061Z,99651.77
2018-02-01T18:14:17.777Z,99651.91
2018-02-01T18:16:45.354Z,99643.95
2018-02-01T18:19:12.949Z,99650.78
2018-02-01T18:21:40.708Z,99652.92
2018-02-01T18:24:08.254Z,99651.61
2018-02-01T18:26:35.802Z,99656.25
2018-02-01T18:29:06.908Z,99660.51
2018-02-01T18:31:35.038Z,99666.64
2018-02-01T18:34:02.630Z,99664.80
2018-02-01T18:36:30.227Z,99657.14
2018-02-01T18:38:57.997Z,99658.38
2018-02-01T18:41:25.544Z,99658.09
2018-02-01T18:43:53.159Z,99663.70
2018-02-01T18:46:20.699Z,99662.83
2018-02-01T18:48:48.360Z,99671.86
2018-02-01T18:51:15.967Z,99666.55
2018-02-01T18:53:43.691Z,99666.77
2018-02-01T18:56:11.247Z,99675.00
2018-02-01T18:58:38.971Z,99677.30
2018-02-01T19:01:06.526Z,99682.22
2018-02-01T19:03:34.101Z,99666.23
2018-02-01T19:06:01.698Z,99670.09
2018-02-01T19:08:29.265Z,99669.08
2018-02-01T19:10:56.827Z,99673.67
2018-02-01T19:13:24.595Z,99663.73
2018-02-01T19:15:52.160Z,99658.72
2018-02-01T19:18:19.898Z,99665.03
2018-02-01T19:20:47.480Z,99673.53
2018-02-01T19:23:15.226Z,99675.09
2018-02-01T19:25:43.110Z,99680.44
2018-02-01T19:28:10.717Z,99669.83
2018-02-01T19:30:38.285Z,99669.11
2018-02-01T19:33:05.852Z,99667.48
2018-02-01T19:35:33.528Z,99670.95
2018-02-01T19:38:01.103Z,99674.95
2018-02-01T19:40:28.679Z,99677.05
2018-02-01T19:42:56.287Z,99682.77
2018-02-01T19:45:23.831Z,99675.54
2018-02-01T19:47:51.430Z,99681.32
2018-02-01T19:50:19.033Z,99679.47
2018-02-01T19:52:46.600Z,99679.52
2018-02-01T19:55:14.172Z,99684.16
2018-02-01T19:57:41.759Z,99677.91
2018-02-01T20:00:09.542Z,99679.84
2018-02-01T20:02:37.114Z,99684.17
2018-02-01T20:05:04.688Z,99681.84
2018-02-01T20:07:32.237Z,99676.25
2018-02-01T20:09:59.799Z,99672.78
2018-02-01T20:12:27.468Z,99673.22
2018-02-01T20:14:55.089Z,99675.56
2018-02-01T20:17:22.678Z,99689.84
2018-02-01T20:19:50.437Z,99693.98
2018-02-01T20:22:18.093Z,99688.60
2018-02-01T20:24:45.702Z,99689.84
2018-02-01T20:27:13.280Z,99699.68
2018-02-01T20:29:40.889Z,99701.02
2018-02-01T20:32:08.458Z,99693.65
2018-02-01T20:34:36.105Z,99694.55
2018-02-01T20:37:03.662Z,99692.25
2018-02-01T20:39:31.257Z,99694.70
2018-02-01T20:41:59.685Z,99690.34
2018-02-01T20:44:27.289Z,99693.05
2018-02-01T20:46:54.850Z,99690.91
2018-02-01T20:49:22.451Z,99686.55
2018-02-01T20:51:50.009Z,99686.44
2018-02-01T20:54:17.572Z,99679.33
2018-02-01T20:56:45.155Z,99686.45
2018-02-01T20:59:12.791Z,99684.62
2018-02-01T21:01:40.485Z,99682.16
2018-02-01T21:04:08.087Z,99676.10
2018-02-01T21:06:35.644Z,99682.97
2018-02-01T21:09:03.486Z,99694.20
2018-02-01T21:11:31.073Z,99699.55
2018-02-01T21:13:58.618Z,99703.58
2018-02-01T21:16:26.160Z,99701.86
2018-02-01T21:18:53.872Z,99694.16
2018-02-01T21:21:21.444Z,99694.62
2018-02-01T21:23:48.994Z,99691.32
2018-02-01T21:26:16.707Z,99684.23
2018-02-01T21:28:44.297Z,99676.44
2018-02-01T21:31:11.934Z,99676.44
2018-02-01T21:33:39.677Z,99672.16
2018-02-01T21:36:07.232Z,99668.71
2018-02-01T21:38:34.784Z,99666.81
2018-02-01T21:41:02.364Z,99675.73
2018-02-01T21:43:29.928Z,99678.19
2018-02-01T21:45:57.480Z,99684.19
2018-02-01T21:48:25.085Z,99681.55
2018-02-01T21:50:52.650Z,99673.78
2018-02-01T21:53:20.212Z,99685.42
2018-02-01T21:55:47.834Z,99686.14
2018-02-01T21:58:15.482Z,99693.27
2018-02-01T22:00:43.070Z,99692.83
2018-02-01T22:03:10.658Z,99684.17
2018-02-01T22:05:38.229Z,99686.86
2018-02-01T22:08:05.773Z,99677.77
2018-02-01T22:10:33.348Z,99677.27
2018-02-01T22:13:01.065Z,99694.48
2018-02-01T22:15:28.621Z,99685.27
2018-02-01T22:17:56.388Z,99693.00
2018-02-01T22:20:23.949Z,99696.00
2018-02-01T22:22:51.504Z,99699.79
2018-02-01T22:25:19.114Z,99708.20
2018-02-01T22:27:46.812Z,99710.73
2018-02-01T22:30:14.369Z,99718.24
2018-02-01T22:32:41.959Z,99708.17
2018-02-01T22:35:09.511Z,99708.84
2018-02-01T22:37:37.066Z,99711.36
2018-02-01T22:40:04.719Z,99710.50
2018-02-01T22:42:32.272Z,99708.72
2018-02-01T22:44:59.889Z,99717.80
2018-02-01T22:47:27.497Z,99715.38
2018-02-01T22:49:55.055Z,99703.83
2018-02-01T22:52:22.615Z,99720.16
2018-02-01T22:54:50.294Z,99722.08
2018-02-01T22:57:17.958Z,99725.63
2018-02-01T22:59:45.604Z,99715.48
2018-02-01T23:02:13.258Z,99708.50
2018-02-01T23:04:40.801Z,99706.06
2018-02-01T23:07:08.356Z,99709.53
2018-02-01T23:09:35.981Z,99710.19
2018-02-01T23:12:03.555Z,99713.02
2018-02-01T23:14:31.115Z,99716.38
2018-02-01T23:16:58.701Z,99727.34
2018-02-01T23:19:26.261Z,99718.35
2018-02-01T23:21:53.816Z,99716.73
2018-02-01T23:24:21.425Z,99725.92
2018-02-01T23:26:48.980Z,99719.31
2018-02-01T23:29:16.545Z,99716.34
2018-02-01T23:31:44.203Z,99709.25
2018-02-01T23:34:11.751Z,99694.45
2018-02-01T23:36:39.303Z,99687.77
2018-02-01T23:39:06.965Z,99691.84
2018-02-01T23:41:34.529Z,99696.46
2018-02-01T23:44:02.099Z,99687.71
2018-02-01T23:46:29.672Z,99686.33
2018-02-01T23:48:57.231Z,99678.74
2018-02-01T23:51:24.813Z,99678.25
2018-02-01T23:53:52.425Z,99675.71
2018-02-01T23:56:19.967Z,99667.19
2018-02-01T23:58:47.658Z,99665.64
